createdAt,value
2019-02-18T00:01:06.035Z,100378.89
2019-02-18T00:03:39.190Z,100358.86
2019-02-18T00:06:27.992Z,100378.50
2019-02-18T00:08:58.904Z,100386.13
2019-02-18T00:11:33.421Z,100383.13
2019-02-18T00:14:04.358Z,100382.29
2019-02-18T00:16:35.224Z,100380.05
2019-02-18T00:22:49.825Z,100381.69
2019-02-18T00:25:42.688Z,100385.70
2019-02-18T00:28:32.263Z,100386.73
2019-02-18T00:31:53.844Z,100390.23
2019-02-18T00:38:01.425Z,100385.21
2019-02-18T00:40:31.496Z,100388.36
2019-02-18T00:43:21.379Z,100389.67
2019-02-18T00:46:29.893Z,100389.67
2019-02-18T00:49:19.721Z,100384.46
2019-02-18T00:52:21.355Z,100393.02
2019-02-18T00:55:11.265Z,100389.52
2019-02-18T00:58:01.195Z,100382.66
2019-02-18T01:00:51.128Z,100376.14
2019-02-18T01:03:26.509Z,100373.48
2019-02-18T01:06:27.536Z,100371.52
2019-02-18T01:08:58.548Z,100371.52
2019-02-18T01:11:48.436Z,100384.32
2019-02-18T01:14:19.358Z,100376.12
2019-02-18T01:17:09.218Z,100376.06
2019-02-18T01:19:40.251Z,100372.80
2019-02-18T01:22:11.068Z,100369.22
2019-02-18T01:27:44.738Z,100373.08
2019-02-18T01:35:58.244Z,100366.39
2019-02-18T01:44:30.416Z,100370.88
2019-02-18T01:47:19.514Z,100367.33
2019-02-18T01:52:51.717Z,100366.64
2019-02-18T01:55:21.818Z,100370.00
2019-02-18T01:58:10.690Z,100362.01
2019-02-18T02:00:41.467Z,100364.31
2019-02-18T02:03:14.656Z,100364.95
2019-02-18T02:06:05.366Z,100355.08
2019-02-18T02:08:36.192Z,100356.33
2019-02-18T02:11:26.197Z,100356.48
2019-02-18T02:16:49.531Z,100344.53
2019-02-18T02:19:19.723Z,100344.53
2019-02-18T02:21:50.650Z,100344.59
2019-02-18T02:27:22.354Z,100341.17
2019-02-18T02:30:32.518Z,100328.81
2019-02-18T02:33:03.296Z,100340.28
2019-02-18T02:35:34.213Z,100342.94
2019-02-18T02:40:54.295Z,100349.30
2019-02-18T02:43:44.147Z,100342.66
2019-02-18T02:46:33.341Z,100342.66
2019-02-18T02:49:03.682Z,100352.47
2019-02-18T02:52:12.608Z,100356.09
2019-02-18T02:54:42.648Z,100356.09
2019-02-18T02:57:12.704Z,100353.91
2019-02-18T02:59:42.956Z,100346.37
2019-02-18T03:02:12.963Z,100345.95
2019-02-18T03:04:43.817Z,100344.94
2019-02-18T03:07:13.898Z,100340.06
2019-02-18T03:09:44.884Z,100345.30
2019-02-18T03:12:15.888Z,100350.41
2019-02-18T03:15:05.049Z,100343.62
2019-02-18T03:18:05.900Z,100337.70
2019-02-18T03:20:26.553Z,100345.03
2019-02-18T03:22:56.564Z,100340.90
2019-02-18T03:25:28.876Z,100335.80
2019-02-18T03:28:37.711Z,100346.22
2019-02-18T03:31:29.460Z,100344.61
2019-02-18T03:34:21.387Z,100348.73
2019-02-18T03:37:10.963Z,100347.27
2019-02-18T03:40:00.827Z,100341.12
2019-02-18T03:42:50.626Z,100341.12
2019-02-18T03:45:41.549Z,100337.73
2019-02-18T03:48:11.582Z,100336.92
2019-02-18T03:51:01.353Z,100335.99
2019-02-18T03:53:50.431Z,100346.82
2019-02-18T03:56:39.297Z,100348.63
2019-02-18T04:02:08.626Z,100352.54
2019-02-18T04:04:38.785Z,100354.23
2019-02-18T04:07:28.872Z,100354.03
2019-02-18T04:10:17.872Z,100354.03
2019-02-18T04:12:59.994Z,100351.86
2019-02-18T04:15:29.982Z,100351.86
2019-02-18T04:18:00.730Z,100367.96
2019-02-18T04:20:51.424Z,100367.96
2019-02-18T04:23:23.373Z,100359.37
2019-02-18T04:25:54.131Z,100360.48
2019-02-18T04:28:43.927Z,100358.12
2019-02-18T04:31:14.676Z,100358.60
2019-02-18T04:33:45.558Z,100361.72
2019-02-18T04:36:35.360Z,100357.91
2019-02-18T04:39:07.288Z,100357.91
2019-02-18T04:41:56.462Z,100363.98
2019-02-18T04:44:46.331Z,100353.91
2019-02-18T04:47:16.397Z,100360.81
2019-02-18T04:50:06.589Z,100358.38
2019-02-18T04:52:37.299Z,100351.09
2019-02-18T04:58:11.847Z,100337.86
2019-02-18T05:00:56.081Z,100350.17
2019-02-18T05:03:20.151Z,100354.51
2019-02-18T05:05:50.535Z,100349.11
2019-02-18T05:08:20.822Z,100350.28
2019-02-18T05:10:50.882Z,100353.41
2019-02-18T05:13:20.850Z,100356.30
2019-02-18T05:16:10.491Z,100344.52
2019-02-18T05:18:40.324Z,100342.73
2019-02-18T05:21:31.138Z,100339.61
2019-02-18T05:24:02.184Z,100350.06
2019-02-18T05:26:32.993Z,100334.47
2019-02-18T05:29:22.773Z,100307.17
2019-02-18T05:32:12.632Z,100330.45
2019-02-18T05:34:42.833Z,100340.43
2019-02-18T05:37:33.343Z,100333.81
2019-02-18T05:40:04.147Z,100336.27
2019-02-18T05:49:00.866Z,100344.59
2019-02-18T05:51:30.815Z,100331.52
2019-02-18T05:54:01.588Z,100329.00
2019-02-18T05:56:50.707Z,100329.00
2019-02-18T05:59:21.707Z,100322.32
2019-02-18T06:01:52.164Z,100331.70
2019-02-18T06:04:22.655Z,100332.57
2019-02-18T06:09:46.956Z,100333.15
2019-02-18T06:12:36.706Z,100332.30
2019-02-18T06:15:08.514Z,100336.91
2019-02-18T06:17:39.281Z,100341.14
2019-02-18T06:20:29.080Z,100336.47
2019-02-18T06:26:11.522Z,100339.73
2019-02-18T06:29:17.968Z,100339.56
2019-02-18T06:37:45.474Z,100341.21
2019-02-18T06:40:24.711Z,100345.22
2019-02-18T06:43:04.686Z,100354.89
2019-02-18T06:49:16.473Z,100350.73
2019-02-18T06:52:06.166Z,100352.13
2019-02-18T06:54:55.228Z,100355.95
2019-02-18T06:57:45.579Z,100350.70
2019-02-18T07:00:56.258Z,100355.61
2019-02-18T07:03:46.801Z,100359.64
2019-02-18T07:06:54.641Z,100360.22
2019-02-18T07:09:51.259Z,100358.28
2019-02-18T07:12:41.949Z,100357.30
2019-02-18T07:21:55.062Z,100353.01
2019-02-18T07:24:49.286Z,100356.20
2019-02-18T07:27:20.101Z,100375.16
2019-02-18T07:29:51.025Z,100371.84
2019-02-18T07:36:03.811Z,100368.86
2019-02-18T07:38:51.493Z,100371.09
2019-02-18T07:41:41.724Z,100361.63
2019-02-18T07:50:20.762Z,100368.16
2019-02-18T07:52:47.852Z,100344.16
2019-02-18T07:58:23.614Z,100356.99
2019-02-18T08:00:54.361Z,100356.99
2019-02-18T08:03:45.063Z,100355.17
2019-02-18T08:06:16.655Z,100350.94
2019-02-18T08:08:51.838Z,100350.64
2019-02-18T08:12:05.393Z,100347.83
2019-02-18T08:18:54.867Z,100352.87
2019-02-18T08:22:02.847Z,100358.10
2019-02-18T08:25:27.103Z,100354.59
2019-02-18T08:27:53.132Z,100353.62
2019-02-18T08:31:02.899Z,100353.62
2019-02-18T08:36:49.062Z,100353.43
2019-02-18T08:39:21.402Z,100352.80
2019-02-18T08:41:55.216Z,100352.65
2019-02-18T08:44:46.253Z,100348.00
2019-02-18T08:47:50.777Z,100350.32
2019-02-18T08:50:47.417Z,100355.50
2019-02-18T08:53:37.466Z,100355.17
2019-02-18T08:56:09.339Z,100353.84
2019-02-18T08:58:42.775Z,100346.30
2019-02-18T09:01:58.938Z,100336.12
2019-02-18T09:16:36.863Z,100343.36
2019-02-18T09:19:27.485Z,100348.08
2019-02-18T09:22:42.534Z,100342.03
2019-02-18T09:25:35.200Z,100339.27
2019-02-18T09:28:49.801Z,100336.19
2019-02-18T09:34:26.792Z,100338.77
2019-02-18T09:36:59.298Z,100335.78
2019-02-18T09:42:39.950Z,100332.98
2019-02-18T09:45:26.706Z,100332.03
2019-02-18T09:48:16.906Z,100331.25
2019-02-18T09:50:51.581Z,100342.63
2019-02-18T09:53:24.649Z,100338.80
2019-02-18T09:55:58.508Z,100336.52
2019-02-18T09:58:32.563Z,100333.09
2019-02-18T10:04:04.960Z,100331.93
2019-02-18T10:09:37.752Z,100329.83
2019-02-18T10:12:27.742Z,100326.62
2019-02-18T10:15:30.057Z,100330.16
2019-02-18T10:18:17.429Z,100321.50
2019-02-18T10:27:30.669Z,100318.52
2019-02-18T10:30:40.780Z,100316.95
2019-02-18T10:33:32.070Z,100312.67
2019-02-18T10:36:08.674Z,100310.15
2019-02-18T10:41:31.661Z,100302.72
2019-02-18T10:46:45.487Z,100297.92
2019-02-18T10:49:21.282Z,100294.15
2019-02-18T10:52:08.951Z,100292.15
2019-02-18T10:54:41.461Z,100297.45
2019-02-18T11:00:19.491Z,100286.78
2019-02-18T11:11:51.351Z,100264.30
2019-02-18T11:14:28.227Z,100263.55
2019-02-18T11:16:59.998Z,100259.41
2019-02-18T11:19:55.313Z,100257.61
2019-02-18T11:22:55.411Z,100255.01
2019-02-18T11:25:42.880Z,100246.75
2019-02-18T11:28:22.685Z,100242.05
2019-02-18T11:31:09.204Z,100240.63
2019-02-18T11:33:53.221Z,100227.64
2019-02-18T11:36:28.279Z,100227.65
2019-02-18T11:39:05.973Z,100225.35
2019-02-18T11:41:40.838Z,100216.86
2019-02-18T11:44:17.332Z,100204.72
2019-02-18T11:46:47.808Z,100202.52
2019-02-18T11:49:19.390Z,100208.91
2019-02-18T11:52:09.306Z,100196.77
2019-02-18T11:55:01.507Z,100202.95
2019-02-18T12:00:55.599Z,100202.17
2019-02-18T12:13:23.788Z,100184.75
2019-02-18T12:16:14.756Z,100174.33
2019-02-18T12:19:07.242Z,100172.98
2019-02-18T12:22:18.777Z,100173.76
2019-02-18T12:25:52.862Z,100167.03
2019-02-18T12:28:01.497Z,100167.03
2019-02-18T12:30:56.775Z,100154.11
2019-02-18T12:34:11.142Z,100154.63
2019-02-18T12:36:43.156Z,100154.63
2019-02-18T12:42:13.325Z,100154.55
2019-02-18T12:45:22.887Z,100152.09
2019-02-18T12:51:39.444Z,100144.76
2019-02-18T12:59:53.384Z,100128.85
2019-02-18T13:02:58.694Z,100126.41
2019-02-18T13:05:58.261Z,100120.81
2019-02-18T13:08:48.522Z,100115.40
2019-02-18T13:14:32.091Z,100107.94
2019-02-18T13:20:23.850Z,100102.42
2019-02-18T13:22:55.891Z,100087.52
2019-02-18T13:25:31.778Z,100081.08
2019-02-18T13:28:08.399Z,100081.08
2019-02-18T13:30:39.446Z,100066.26
2019-02-18T13:33:14.000Z,100076.12
2019-02-18T13:35:48.755Z,100080.50
2019-02-18T13:38:27.352Z,100076.06
2019-02-18T13:41:01.871Z,100074.56
2019-02-18T13:43:32.562Z,100074.56
2019-02-18T13:46:18.598Z,100068.83
2019-02-18T13:48:59.782Z,100077.13
2019-02-18T13:51:30.091Z,100071.30
2019-02-18T13:57:09.948Z,100064.38
2019-02-18T14:00:00.387Z,100050.06
2019-02-18T14:02:32.700Z,100051.45
2019-02-18T14:05:22.557Z,100055.19
2019-02-18T14:08:05.846Z,100054.75
2019-02-18T14:11:14.300Z,100054.75
2019-02-18T14:14:05.380Z,100045.17
2019-02-18T14:17:07.351Z,100043.36
2019-02-18T14:19:29.734Z,100042.52
2019-02-18T14:22:02.075Z,100040.16
2019-02-18T14:24:53.317Z,100042.69
2019-02-18T14:27:34.768Z,100042.46
2019-02-18T14:30:24.744Z,100044.48
2019-02-18T14:32:57.522Z,100031.76
2019-02-18T14:35:34.812Z,100039.40
2019-02-18T14:38:45.360Z,100029.91
2019-02-18T14:41:54.861Z,100028.56
2019-02-18T14:44:27.029Z,100040.10
2019-02-18T14:47:26.473Z,100030.28
2019-02-18T14:53:07.022Z,100031.66
2019-02-18T14:55:37.768Z,100027.42
2019-02-18T14:58:09.330Z,100022.92
2019-02-18T15:01:00.273Z,100024.77
2019-02-18T15:03:51.639Z,100018.20
2019-02-18T15:06:28.410Z,100017.75
2019-02-18T15:09:01.143Z,100015.34
2019-02-18T15:14:36.846Z,100010.22
2019-02-18T15:19:54.211Z,99993.73
2019-02-18T15:25:26.177Z,100001.46
2019-02-18T15:28:00.451Z,100001.46
2019-02-18T15:30:52.337Z,100000.44
2019-02-18T15:33:31.567Z,100001.62
2019-02-18T15:36:05.886Z,99993.53
2019-02-18T15:38:38.977Z,99992.94
2019-02-18T15:41:11.637Z,99997.27
2019-02-18T15:43:45.277Z,99996.37
2019-02-18T15:46:31.841Z,99989.41
2019-02-18T15:49:10.909Z,99982.45
2019-02-18T15:51:46.815Z,99985.39
2019-02-18T15:54:20.451Z,99987.48
2019-02-18T15:57:13.142Z,99980.03
2019-02-18T16:00:03.341Z,99975.70
2019-02-18T16:02:38.196Z,99978.39
2019-02-18T16:09:00.184Z,99965.66
2019-02-18T16:11:51.888Z,99957.75
2019-02-18T16:14:26.059Z,99949.67
2019-02-18T16:19:55.240Z,99940.91
2019-02-18T16:23:06.200Z,99940.91
2019-02-18T16:26:15.146Z,99943.38
2019-02-18T16:29:18.966Z,99949.56
2019-02-18T16:32:08.339Z,99944.02
2019-02-18T16:35:01.812Z,99946.75
2019-02-18T16:37:38.815Z,99939.80
2019-02-18T16:40:17.955Z,99941.69
2019-02-18T16:42:59.230Z,99941.23
2019-02-18T16:49:27.788Z,99929.88
2019-02-18T16:52:07.782Z,99927.42
2019-02-18T16:54:44.387Z,99924.06
2019-02-18T16:57:58.742Z,99914.36
2019-02-18T17:00:57.319Z,99925.42
2019-02-18T17:03:25.257Z,99925.33
2019-02-18T17:11:36.115Z,99932.71
2019-02-18T17:14:07.558Z,99930.45
2019-02-18T17:16:58.300Z,99931.38
2019-02-18T17:19:30.934Z,99934.30
2019-02-18T17:25:15.124Z,99931.00
2019-02-18T17:27:49.684Z,99936.84
2019-02-18T17:30:40.259Z,99932.88
2019-02-18T17:33:44.447Z,99931.22
2019-02-18T17:36:25.237Z,99934.03
2019-02-18T17:39:30.236Z,99927.63
2019-02-18T17:42:27.464Z,99927.59
2019-02-18T17:45:02.350Z,99925.00
2019-02-18T17:50:41.419Z,99924.41
2019-02-18T17:53:31.597Z,99923.37
2019-02-18T17:56:15.913Z,99925.36
2019-02-18T18:02:00.928Z,99917.63
2019-02-18T18:04:51.166Z,99920.79
2019-02-18T18:07:32.346Z,99920.79
2019-02-18T18:10:15.392Z,99928.05
2019-02-18T18:13:30.363Z,99923.25
2019-02-18T18:18:41.053Z,99933.28
2019-02-18T18:21:24.728Z,99928.45
2019-02-18T18:24:33.120Z,99931.14
2019-02-18T18:27:41.198Z,99930.13
2019-02-18T18:34:11.109Z,99927.50
2019-02-18T18:36:46.999Z,99927.90
2019-02-18T18:39:28.625Z,99920.13
2019-02-18T18:42:03.939Z,99918.29
2019-02-18T18:44:35.958Z,99920.44
2019-02-18T18:53:36.934Z,99913.69
2019-02-18T18:59:46.838Z,99914.07
2019-02-18T19:05:23.266Z,99909.95
2019-02-18T19:07:54.359Z,99916.27
2019-02-18T19:14:14.061Z,99909.77
2019-02-18T19:17:07.770Z,99909.56
2019-02-18T19:19:39.228Z,99920.00
2019-02-18T19:22:16.112Z,99920.00
2019-02-18T19:28:44.149Z,99911.58
2019-02-18T19:31:38.340Z,99911.58
2019-02-18T19:34:34.293Z,99931.35
2019-02-18T19:37:46.407Z,99931.35
2019-02-18T19:43:50.191Z,99911.70
2019-02-18T19:47:01.118Z,99921.48
2019-02-18T19:49:34.812Z,99934.80
2019-02-18T19:55:17.165Z,99940.61
2019-02-18T19:58:10.343Z,99932.10
2019-02-18T20:01:03.419Z,99934.64
2019-02-18T20:06:54.273Z,99926.76
2019-02-18T20:09:57.489Z,99933.75
2019-02-18T20:22:06.098Z,99936.39
2019-02-18T20:27:30.200Z,99935.25
2019-02-18T20:30:01.716Z,99930.59
2019-02-18T20:32:34.989Z,99927.63
2019-02-18T20:35:11.305Z,99923.47
2019-02-18T20:37:49.084Z,99931.34
2019-02-18T20:40:26.553Z,99929.86
2019-02-18T20:42:58.158Z,99929.52
2019-02-18T20:45:51.573Z,99939.89
2019-02-18T20:48:41.825Z,99931.87
2019-02-18T20:51:15.601Z,99939.84
2019-02-18T20:53:48.069Z,99933.41
2019-02-18T21:00:04.193Z,99939.62
2019-02-18T21:02:47.381Z,99941.08
2019-02-18T21:05:27.966Z,99939.05
2019-02-18T21:17:48.951Z,99946.48
2019-02-18T21:20:59.227Z,99949.09
2019-02-18T21:24:21.880Z,99949.09
2019-02-18T21:27:01.288Z,99947.47
2019-02-18T21:33:06.198Z,99944.80
2019-02-18T21:36:05.968Z,99927.76
2019-02-18T21:39:00.714Z,99927.76
2019-02-18T21:41:47.588Z,99940.27
2019-02-18T21:44:39.859Z,99941.11
2019-02-18T21:47:53.378Z,99938.63
2019-02-18T21:54:39.729Z,99950.66
2019-02-18T21:57:13.386Z,99937.19
2019-02-18T22:00:28.103Z,99937.52
2019-02-18T22:03:34.305Z,99938.17
2019-02-18T22:06:31.623Z,99938.17
2019-02-18T22:09:40.241Z,99937.34
2019-02-18T22:15:49.295Z,99943.55
2019-02-18T22:18:51.371Z,99943.55
2019-02-18T22:21:57.752Z,99939.53
2019-02-18T22:24:47.304Z,99942.17
2019-02-18T22:27:51.361Z,99940.50
2019-02-18T22:30:50.716Z,99942.33
2019-02-18T22:34:15.363Z,99940.84
2019-02-18T22:37:17.068Z,99948.20
2019-02-18T22:40:20.812Z,99944.50
2019-02-18T22:43:25.217Z,99950.51
2019-02-18T22:46:28.270Z,99945.48
2019-02-18T22:49:33.041Z,99939.48
2019-02-18T22:52:38.399Z,99936.79
2019-02-18T22:55:59.967Z,99942.42
2019-02-18T23:11:18.430Z,99942.91
2019-02-18T23:17:40.469Z,99944.95
2019-02-18T23:20:17.770Z,99948.25
2019-02-18T23:26:50.415Z,99947.63
2019-02-18T23:29:46.359Z,99945.50
2019-02-18T23:42:12.227Z,99954.50
2019-02-18T23:45:15.970Z,99954.57
2019-02-18T23:48:40.520Z,99961.09
2019-02-18T23:57:11.067Z,99955.89
